SAS405 EKYT-EKCH
Flight info
| Callsign | SAS405 |
|---|---|
| Flight time | 0h 31m |
| Altitude | 19000 |
| Route | AAL M725 ADSEN DCT TNO |
| Aircraft | A320/M-SDE3FGHIRWY/LB1 |
Departure
| Time | 2026-05-01 10:45 |
|---|---|
| Airport | Aalborg Airport (EKYT) |
Arrival
| Time | 2026-05-01 11:16 |
|---|---|
| Airport | Copenhagen Kastrup Airport (EKCH) |
| Time | Latitude | Longitude | Altitude | Speed | Heading |
|---|---|---|---|---|---|
| 2026-05-01 10:23 | 57.08709 | 9.86981 | 19 ft | 0 kts | 55° |
| 2026-05-01 10:29 | 57.08709 | 9.86980 | 19 ft | 0 kts | 55° |
| 2026-05-01 10:34 | 57.08705 | 9.86971 | 19 ft | 2 kts | 53° |
| 2026-05-01 10:34 | 57.08702 | 9.86962 | 19 ft | 3 kts | 51° |
| 2026-05-01 10:34 | 57.08688 | 9.86935 | 20 ft | 3 kts | 40° |
| 2026-05-01 10:35 | 57.08654 | 9.86904 | 19 ft | 3 kts | 355° |
| 2026-05-01 10:35 | 57.08639 | 9.86912 | 21 ft | 2 kts | 317° |
| 2026-05-01 10:35 | 57.08637 | 9.86915 | 19 ft | 0 kts | 315° |
| 2026-05-01 10:39 | 57.08638 | 9.86912 | 19 ft | 1 kts | 315° |
| 2026-05-01 10:39 | 57.08651 | 9.86889 | 19 ft | 4 kts | 315° |
| 2026-05-01 10:39 | 57.08678 | 9.86840 | 20 ft | 7 kts | 315° |
| 2026-05-01 10:39 | 57.08720 | 9.86772 | 20 ft | 9 kts | 321° |
| 2026-05-01 10:40 | 57.08779 | 9.86686 | 19 ft | 12 kts | 321° |
| 2026-05-01 10:40 | 57.08854 | 9.86578 | 21 ft | 15 kts | 322° |
| 2026-05-01 10:40 | 57.08944 | 9.86447 | 19 ft | 18 kts | 321° |
| 2026-05-01 10:40 | 57.09052 | 9.86296 | 19 ft | 21 kts | 323° |
| 2026-05-01 10:41 | 57.09175 | 9.86123 | 20 ft | 24 kts | 322° |
| 2026-05-01 10:41 | 57.09311 | 9.85930 | 19 ft | 26 kts | 322° |
| 2026-05-01 10:41 | 57.09542 | 9.85657 | 19 ft | 16 kts | 7° |
| 2026-05-01 10:42 | 57.09648 | 9.85767 | 21 ft | 19 kts | 32° |
| 2026-05-01 10:42 | 57.09747 | 9.85893 | 19 ft | 15 kts | 56° |
| 2026-05-01 10:42 | 57.09767 | 9.86098 | 19 ft | 18 kts | 84° |
| 2026-05-01 10:42 | 57.09782 | 9.86339 | 19 ft | 20 kts | 83° |
| 2026-05-01 10:43 | 57.09800 | 9.86616 | 19 ft | 23 kts | 83° |
| 2026-05-01 10:43 | 57.09820 | 9.86927 | 19 ft | 26 kts | 83° |
| 2026-05-01 10:43 | 57.09842 | 9.87271 | 19 ft | 28 kts | 83° |
| 2026-05-01 10:43 | 57.09864 | 9.87613 | 19 ft | 16 kts | 83° |
| 2026-05-01 10:44 | 57.09823 | 9.87774 | 20 ft | 17 kts | 171° |
| 2026-05-01 10:44 | 57.09708 | 9.87698 | 20 ft | 19 kts | 209° |
| 2026-05-01 10:44 | 57.09641 | 9.87491 | 20 ft | 22 kts | 264° |
| 2026-05-01 10:44 | 57.09598 | 9.86817 | 19 ft | 88 kts | 263° |
| 2026-05-01 10:45 | 57.09502 | 9.85326 | 19 ft | 143 kts | 263° |
| 2026-05-01 10:45 | 57.09376 | 9.83391 | 459 ft | 152 kts | 262° |
| 2026-05-01 10:45 | 57.09251 | 9.81416 | 1073 ft | 159 kts | 260° |
| 2026-05-01 10:45 | 57.08828 | 9.79576 | 1745 ft | 158 kts | 227° |
| 2026-05-01 10:46 | 57.07858 | 9.78523 | 2205 ft | 177 kts | 196° |
| 2026-05-01 10:46 | 57.06549 | 9.78709 | 2560 ft | 206 kts | 163° |
| 2026-05-01 10:46 | 57.05253 | 9.80216 | 2875 ft | 236 kts | 147° |
| 2026-05-01 10:46 | 57.03862 | 9.82121 | 3283 ft | 263 kts | 147° |
| 2026-05-01 10:47 | 57.02337 | 9.84202 | 3873 ft | 284 kts | 147° |
| 2026-05-01 10:47 | 57.00724 | 9.86388 | 4800 ft | 283 kts | 147° |
| 2026-05-01 10:47 | 56.99156 | 9.88491 | 6046 ft | 278 kts | 147° |
| 2026-05-01 10:47 | 56.97588 | 9.90585 | 7054 ft | 281 kts | 147° |
| 2026-05-01 10:48 | 56.96003 | 9.92684 | 8002 ft | 283 kts | 147° |
| 2026-05-01 10:48 | 56.94403 | 9.94801 | 8867 ft | 286 kts | 147° |
| 2026-05-01 10:48 | 56.92778 | 9.96935 | 9743 ft | 291 kts | 147° |
| 2026-05-01 10:48 | 56.91130 | 9.99100 | 10566 ft | 295 kts | 147° |
| 2026-05-01 10:49 | 56.89395 | 10.01366 | 10863 ft | 318 kts | 147° |
| 2026-05-01 10:49 | 56.87529 | 10.03807 | 11072 ft | 342 kts | 147° |
| 2026-05-01 10:49 | 56.85544 | 10.06413 | 11424 ft | 358 kts | 146° |
| 2026-05-01 10:49 | 56.83523 | 10.09080 | 12057 ft | 364 kts | 146° |
| 2026-05-01 10:50 | 56.81463 | 10.11804 | 12761 ft | 367 kts | 146° |
| 2026-05-01 10:50 | 56.79379 | 10.14551 | 13472 ft | 371 kts | 146° |
| 2026-05-01 10:50 | 56.77274 | 10.17316 | 14156 ft | 375 kts | 146° |
| 2026-05-01 10:50 | 56.75145 | 10.20105 | 14801 ft | 378 kts | 146° |
| 2026-05-01 10:51 | 56.72998 | 10.22908 | 15418 ft | 382 kts | 146° |
| 2026-05-01 10:51 | 56.70826 | 10.25738 | 16008 ft | 386 kts | 146° |
| 2026-05-01 10:51 | 56.68631 | 10.28599 | 16599 ft | 389 kts | 146° |
| 2026-05-01 10:51 | 56.66399 | 10.31503 | 17208 ft | 393 kts | 146° |
| 2026-05-01 10:52 | 56.64168 | 10.34402 | 17813 ft | 396 kts | 146° |
| 2026-05-01 10:52 | 56.61915 | 10.37326 | 18413 ft | 400 kts | 146° |
| 2026-05-01 10:52 | 56.59640 | 10.40275 | 19010 ft | 403 kts | 146° |
| 2026-05-01 10:52 | 56.57350 | 10.43237 | 19313 ft | 405 kts | 146° |
| 2026-05-01 10:53 | 56.55038 | 10.46226 | 19399 ft | 416 kts | 146° |
| 2026-05-01 10:53 | 56.52632 | 10.49334 | 19407 ft | 433 kts | 146° |
| 2026-05-01 10:53 | 56.50172 | 10.52503 | 19404 ft | 445 kts | 146° |
| 2026-05-01 10:53 | 56.47641 | 10.55759 | 19402 ft | 448 kts | 146° |
| 2026-05-01 10:54 | 56.45065 | 10.59070 | 19413 ft | 449 kts | 146° |
| 2026-05-01 10:54 | 56.42555 | 10.62287 | 19412 ft | 449 kts | 146° |
| 2026-05-01 10:54 | 56.40006 | 10.65548 | 19412 ft | 449 kts | 146° |
| 2026-05-01 10:54 | 56.37458 | 10.68800 | 19412 ft | 449 kts | 146° |
| 2026-05-01 10:55 | 56.34907 | 10.72046 | 19412 ft | 449 kts | 146° |
| 2026-05-01 10:55 | 56.32356 | 10.75290 | 19412 ft | 449 kts | 146° |
| 2026-05-01 10:55 | 56.29801 | 10.78536 | 19412 ft | 449 kts | 146° |
| 2026-05-01 10:55 | 56.27246 | 10.81773 | 19411 ft | 449 kts | 146° |
| 2026-05-01 10:56 | 56.24687 | 10.85008 | 19407 ft | 449 kts | 146° |
| 2026-05-01 10:56 | 56.22132 | 10.88232 | 19403 ft | 449 kts | 146° |
| 2026-05-01 10:56 | 56.19575 | 10.91459 | 19404 ft | 449 kts | 146° |
| 2026-05-01 10:56 | 56.17022 | 10.94681 | 19401 ft | 449 kts | 146° |
| 2026-05-01 10:57 | 56.14465 | 10.97898 | 19398 ft | 449 kts | 146° |
| 2026-05-01 10:57 | 56.11908 | 11.01106 | 19391 ft | 449 kts | 146° |
| 2026-05-01 10:57 | 56.09349 | 11.04312 | 19388 ft | 448 kts | 146° |
| 2026-05-01 10:57 | 56.06792 | 11.07511 | 19383 ft | 449 kts | 146° |
| 2026-05-01 10:58 | 56.04235 | 11.10714 | 19388 ft | 449 kts | 145° |
| 2026-05-01 10:58 | 56.01678 | 11.13913 | 19385 ft | 449 kts | 146° |
| 2026-05-01 10:58 | 55.99118 | 11.17102 | 19387 ft | 449 kts | 146° |
| 2026-05-01 10:58 | 55.96556 | 11.20286 | 19397 ft | 449 kts | 145° |
| 2026-05-01 10:59 | 55.93999 | 11.23465 | 19316 ft | 443 kts | 144° |
| 2026-05-01 10:59 | 55.91510 | 11.26548 | 18992 ft | 426 kts | 145° |
| 2026-05-01 10:59 | 55.89121 | 11.29493 | 18866 ft | 409 kts | 145° |
| 2026-05-01 10:59 | 55.86827 | 11.32323 | 18739 ft | 394 kts | 145° |
| 2026-05-01 11:00 | 55.84618 | 11.35046 | 18614 ft | 379 kts | 145° |
| 2026-05-01 11:00 | 55.82487 | 11.37671 | 18488 ft | 366 kts | 145° |
| 2026-05-01 11:00 | 55.80444 | 11.40236 | 18362 ft | 353 kts | 140° |
| 2026-05-01 11:00 | 55.78769 | 11.43306 | 18223 ft | 341 kts | 125° |
| 2026-05-01 11:01 | 55.77616 | 11.46906 | 17847 ft | 331 kts | 111° |
| 2026-05-01 11:01 | 55.77016 | 11.50799 | 17268 ft | 324 kts | 96° |
| 2026-05-01 11:01 | 55.76801 | 11.54759 | 16829 ft | 322 kts | 94° |
| 2026-05-01 11:01 | 55.76595 | 11.58709 | 16394 ft | 321 kts | 94° |
| 2026-05-01 11:02 | 55.76379 | 11.62667 | 15951 ft | 323 kts | 95° |
| 2026-05-01 11:02 | 55.76153 | 11.66634 | 15508 ft | 323 kts | 95° |
| 2026-05-01 11:02 | 55.75924 | 11.70584 | 15164 ft | 321 kts | 95° |
| 2026-05-01 11:02 | 55.75694 | 11.74527 | 14783 ft | 320 kts | 95° |
| 2026-05-01 11:03 | 55.75464 | 11.78435 | 14449 ft | 318 kts | 95° |
| 2026-05-01 11:03 | 55.75238 | 11.82305 | 14076 ft | 317 kts | 95° |
| 2026-05-01 11:03 | 55.75010 | 11.86183 | 13711 ft | 315 kts | 95° |
| 2026-05-01 11:03 | 55.74785 | 11.90029 | 13243 ft | 311 kts | 95° |
| 2026-05-01 11:04 | 55.74564 | 11.93840 | 12623 ft | 310 kts | 95° |
| 2026-05-01 11:04 | 55.74342 | 11.97637 | 12273 ft | 308 kts | 96° |
| 2026-05-01 11:04 | 55.74114 | 12.01415 | 11926 ft | 306 kts | 96° |
| 2026-05-01 11:04 | 55.73886 | 12.05190 | 11526 ft | 307 kts | 95° |
| 2026-05-01 11:05 | 55.73659 | 12.08953 | 11147 ft | 307 kts | 96° |
| 2026-05-01 11:05 | 55.73434 | 12.12693 | 10833 ft | 304 kts | 96° |
| 2026-05-01 11:05 | 55.73209 | 12.16433 | 10466 ft | 303 kts | 96° |
| 2026-05-01 11:05 | 55.72982 | 12.20145 | 10041 ft | 304 kts | 96° |
| 2026-05-01 11:06 | 55.72756 | 12.23842 | 9772 ft | 299 kts | 96° |
| 2026-05-01 11:06 | 55.72529 | 12.27503 | 9419 ft | 298 kts | 96° |
| 2026-05-01 11:06 | 55.72302 | 12.31152 | 9058 ft | 297 kts | 96° |
| 2026-05-01 11:07 | 55.71851 | 12.38394 | 8440 ft | 292 kts | 96° |
| 2026-05-01 11:07 | 55.71626 | 12.41950 | 8418 ft | 290 kts | 96° |
| 2026-05-01 11:07 | 55.71400 | 12.45490 | 8071 ft | 288 kts | 96° |
| 2026-05-01 11:07 | 55.71245 | 12.49032 | 7367 ft | 288 kts | 87° |
| 2026-05-01 11:08 | 55.71572 | 12.52507 | 6760 ft | 284 kts | 70° |
| 2026-05-01 11:08 | 55.72372 | 12.55652 | 6366 ft | 272 kts | 61° |
| 2026-05-01 11:08 | 55.74011 | 12.61361 | 5719 ft | 251 kts | 62° |
| 2026-05-01 11:09 | 55.74878 | 12.63980 | 5421 ft | 243 kts | 50° |
| 2026-05-01 11:09 | 55.76031 | 12.66135 | 5238 ft | 241 kts | 38° |
| 2026-05-01 11:09 | 55.77296 | 12.68098 | 4841 ft | 238 kts | 39° |
| 2026-05-01 11:10 | 55.79825 | 12.72009 | 3881 ft | 244 kts | 38° |
| 2026-05-01 11:10 | 55.81070 | 12.74001 | 3508 ft | 236 kts | 46° |
| 2026-05-01 11:10 | 55.81681 | 12.75576 | 3275 ft | 233 kts | 63° |
| 2026-05-01 11:10 | 55.82054 | 12.78318 | 2936 ft | 228 kts | 89° |
| 2026-05-01 11:11 | 55.81732 | 12.81028 | 2589 ft | 226 kts | 116° |
| 2026-05-01 11:11 | 55.80788 | 12.83242 | 2243 ft | 227 kts | 141° |
| 2026-05-01 11:11 | 55.79384 | 12.84525 | 1889 ft | 226 kts | 168° |
| 2026-05-01 11:11 | 55.77845 | 12.85114 | 1550 ft | 227 kts | 169° |
| 2026-05-01 11:12 | 55.76309 | 12.85566 | 1200 ft | 227 kts | 180° |
| 2026-05-01 11:12 | 55.74782 | 12.85118 | 1031 ft | 217 kts | 202° |
| 2026-05-01 11:12 | 55.73534 | 12.83862 | 1071 ft | 197 kts | 219° |
| 2026-05-01 11:12 | 55.72572 | 12.82366 | 1326 ft | 173 kts | 220° |
| 2026-05-01 11:13 | 55.71687 | 12.80988 | 1625 ft | 166 kts | 221° |
| 2026-05-01 11:13 | 55.70829 | 12.79650 | 1855 ft | 162 kts | 221° |
| 2026-05-01 11:13 | 55.69987 | 12.78339 | 1951 ft | 161 kts | 221° |
| 2026-05-01 11:13 | 55.69150 | 12.77035 | 1737 ft | 160 kts | 220° |
| 2026-05-01 11:14 | 55.68349 | 12.75788 | 1533 ft | 146 kts | 220° |
| 2026-05-01 11:14 | 55.67604 | 12.74629 | 1348 ft | 140 kts | 220° |
| 2026-05-01 11:14 | 55.66880 | 12.73498 | 1170 ft | 138 kts | 220° |
| 2026-05-01 11:14 | 55.66158 | 12.72376 | 993 ft | 139 kts | 220° |
| 2026-05-01 11:15 | 55.65422 | 12.71247 | 813 ft | 140 kts | 221° |
| 2026-05-01 11:15 | 55.64691 | 12.70101 | 630 ft | 140 kts | 221° |
| 2026-05-01 11:15 | 55.63960 | 12.68969 | 416 ft | 139 kts | 221° |
| 2026-05-01 11:15 | 55.63235 | 12.67837 | 241 ft | 139 kts | 221° |
| 2026-05-01 11:16 | 55.62510 | 12.66712 | 53 ft | 138 kts | 220° |
| 2026-05-01 11:16 | 55.61855 | 12.65696 | 19 ft | 105 kts | 221° |
| 2026-05-01 11:16 | 55.61436 | 12.65048 | 18 ft | 54 kts | 221° |
| 2026-05-01 11:16 | 55.61286 | 12.64732 | 20 ft | 22 kts | 241° |
| 2026-05-01 11:17 | 55.61223 | 12.64461 | 17 ft | 25 kts | 251° |
| 2026-05-01 11:17 | 55.61188 | 12.64181 | 17 ft | 17 kts | 289° |
| 2026-05-01 11:17 | 55.61291 | 12.64128 | 17 ft | 18 kts | 24° |
| 2026-05-01 11:17 | 55.61405 | 12.64259 | 18 ft | 21 kts | 33° |
| 2026-05-01 11:18 | 55.61537 | 12.64410 | 18 ft | 24 kts | 33° |
| 2026-05-01 11:18 | 55.61674 | 12.64563 | 17 ft | 19 kts | 22° |
| 2026-05-01 11:18 | 55.61814 | 12.64537 | 17 ft | 22 kts | 349° |
| 2026-05-01 11:18 | 55.61974 | 12.64483 | 19 ft | 25 kts | 349° |
| 2026-05-01 11:19 | 55.62147 | 12.64425 | 18 ft | 26 kts | 350° |
| 2026-05-01 11:19 | 55.62315 | 12.64415 | 18 ft | 23 kts | 15° |
| 2026-05-01 11:19 | 55.62397 | 12.64454 | 17 ft | 13 kts | 15° |
| 2026-05-01 11:19 | 55.62489 | 12.64474 | 17 ft | 14 kts | 333° |
| 2026-05-01 11:20 | 55.62548 | 12.64333 | 19 ft | 15 kts | 303° |
| 2026-05-01 11:20 | 55.62627 | 12.64284 | 18 ft | 14 kts | 27° |
| 2026-05-01 11:20 | 55.62721 | 12.64359 | 18 ft | 15 kts | 26° |
| 2026-05-01 11:20 | 55.62756 | 12.64441 | 17 ft | 9 kts | 102° |
| 2026-05-01 11:21 | 55.62752 | 12.64476 | 17 ft | 0 kts | 101° |